Andrus Island, California
Current Conditions -  °F | °C
As of 8:58 AM on Thursday 30 Oct 2014 (Local Time) from KSUU Reporting Station
Clear Clear  
Wind Chill: 57°   Ceiling: Unl
Heat Index: 57°   Visibility: 10mi
Dew Point: 51°   Wind: 8mph
Humidity: 81%   Direction: 60°ENE
Pressure: 29.96"   Gusts: NA
Location:  38.1457°N, 121.624°W
Report Text: KSUU 301558Z AUTO 06007KT 10SM CLR 14/11 A2996 RMK AO2 SLP152 T01390107 $
Loading
Personal Weather Stations






























Interactive Weather Map New forecast layout! Learn more

10-Day Weather Forecast

Advertisements
Track Severe Weather on mobile